createdAt,value
2019-05-02T00:02:30.075Z,11.20
2019-05-02T00:05:34.775Z,11.30
2019-05-02T00:08:39.565Z,11.30
2019-05-02T00:11:43.871Z,11.50
2019-05-02T00:14:48.283Z,11.50
2019-05-02T00:17:56.758Z,11.60
2019-05-02T00:21:01.455Z,11.60
2019-05-02T00:24:06.695Z,11.60
2019-05-02T00:27:11.000Z,11.80
2019-05-02T00:30:15.928Z,11.70
2019-05-02T00:33:20.298Z,11.70
2019-05-02T00:36:24.596Z,11.60
2019-05-02T00:39:28.961Z,11.70
2019-05-02T00:42:33.304Z,11.60
2019-05-02T00:45:37.622Z,11.60
2019-05-02T00:48:54.162Z,11.70
2019-05-02T00:52:01.228Z,11.80
2019-05-02T00:55:02.623Z,11.90
2019-05-02T00:58:06.936Z,12.00
2019-05-02T01:01:33.219Z,12.00
2019-05-02T01:04:39.548Z,12.00
2019-05-02T01:07:43.881Z,12.20
2019-05-02T01:10:52.087Z,12.30
2019-05-02T01:13:55.868Z,12.30
2019-05-02T01:17:00.371Z,12.40
2019-05-02T01:20:05.365Z,12.40
2019-05-02T01:23:09.692Z,12.50
2019-05-02T01:26:13.983Z,12.60
2019-05-02T01:29:36.695Z,12.40
2019-05-02T01:33:01.330Z,12.60
2019-05-02T01:36:08.182Z,12.50
2019-05-02T01:39:13.266Z,12.50
2019-05-02T01:42:17.573Z,12.50
2019-05-02T01:45:21.881Z,12.50
2019-05-02T01:48:26.356Z,12.50
2019-05-02T01:51:30.695Z,12.50
2019-05-02T01:54:36.107Z,12.50
2019-05-02T01:57:44.754Z,12.50
2019-05-02T02:00:46.462Z,12.50
2019-05-02T02:03:50.793Z,12.60
2019-05-02T02:06:55.086Z,12.50
2019-05-02T02:10:01.138Z,12.60
2019-05-02T02:13:05.564Z,12.50
2019-05-02T02:16:09.970Z,12.50
2019-05-02T02:19:22.371Z,12.50
2019-05-02T02:22:41.111Z,12.60
2019-05-02T02:26:06.779Z,12.50
2019-05-02T02:29:12.517Z,12.50
2019-05-02T02:32:19.984Z,12.40
2019-05-02T02:35:22.827Z,12.40
2019-05-02T02:38:33.783Z,12.20
2019-05-02T02:41:33.187Z,12.10
2019-05-02T02:44:56.427Z,12.10
2019-05-02T02:48:02.588Z,12.00
2019-05-02T02:51:06.804Z,11.80
2019-05-02T02:54:11.150Z,11.70
2019-05-02T02:57:25.684Z,11.50
2019-05-02T03:00:21.492Z,11.40
2019-05-02T03:03:27.965Z,11.40
2019-05-02T03:06:31.980Z,11.30
2019-05-02T03:09:36.219Z,11.10
2019-05-02T03:13:08.484Z,11.00
2019-05-02T03:16:16.734Z,10.80
2019-05-02T03:19:23.102Z,10.80
2019-05-02T03:22:27.146Z,10.70
2019-05-02T03:25:50.120Z,10.60
2019-05-02T03:28:37.738Z,10.50
2019-05-02T03:31:42.133Z,10.40
2019-05-02T03:34:52.274Z,10.30
2019-05-02T03:37:53.290Z,10.20
2019-05-02T03:40:57.656Z,10.20
2019-05-02T03:44:11.183Z,10.10
2019-05-02T03:47:08.399Z,10.00
2019-05-02T03:50:13.112Z,10.00
2019-05-02T03:53:24.773Z,9.90
2019-05-02T03:56:23.674Z,9.90
2019-05-02T03:59:37.552Z,9.90
2019-05-02T04:02:34.186Z,9.80
2019-05-02T04:05:40.495Z,9.80
2019-05-02T04:08:45.445Z,9.80
2019-05-02T04:11:49.766Z,9.90
2019-05-02T04:14:56.044Z,9.90
2019-05-02T04:18:00.629Z,9.90
2019-05-02T04:21:04.931Z,9.90
2019-05-02T04:24:14.997Z,9.90
2019-05-02T04:27:16.001Z,10.00
2019-05-02T04:30:20.311Z,10.00
2019-05-02T04:33:29.193Z,10.20
2019-05-02T04:36:31.789Z,10.30
2019-05-02T04:39:39.147Z,10.50
2019-05-02T04:42:42.468Z,10.50
2019-05-02T04:45:55.816Z,10.70
2019-05-02T04:48:53.376Z,10.70
2019-05-02T04:52:06.155Z,10.90
2019-05-02T04:55:14.742Z,10.90
2019-05-02T04:58:10.122Z,11.00
2019-05-02T05:01:14.471Z,11.00
2019-05-02T05:04:18.782Z,11.10
2019-05-02T05:07:23.182Z,11.10
2019-05-02T05:10:27.818Z,11.30
2019-05-02T05:13:36.923Z,11.30
2019-05-02T05:16:45.362Z,11.30
2019-05-02T05:19:48.737Z,11.50
2019-05-02T05:22:53.267Z,11.50
2019-05-02T05:26:03.243Z,11.50
2019-05-02T05:29:05.053Z,11.60
2019-05-02T05:32:10.282Z,11.60
2019-05-02T05:35:14.807Z,11.60
2019-05-02T05:38:22.958Z,11.90
2019-05-02T05:41:27.835Z,11.80
2019-05-02T05:44:32.856Z,12.00
2019-05-02T05:47:37.810Z,12.00
2019-05-02T05:50:42.674Z,12.10
2019-05-02T05:53:47.968Z,12.30
2019-05-02T05:56:53.395Z,12.20
2019-05-02T05:59:58.434Z,12.30
2019-05-02T06:03:11.573Z,12.30
2019-05-02T06:06:10.267Z,12.50
2019-05-02T06:09:15.446Z,12.50
2019-05-02T06:12:20.187Z,12.70
2019-05-02T06:15:24.557Z,12.70
2019-05-02T06:18:29.274Z,12.90
2019-05-02T06:21:34.000Z,12.90
2019-05-02T06:24:38.420Z,13.00
2019-05-02T06:27:42.770Z,13.10
2019-05-02T06:30:47.403Z,13.30
2019-05-02T06:33:51.756Z,13.40
2019-05-02T06:36:56.088Z,13.70
2019-05-02T06:40:03.067Z,13.80
2019-05-02T06:43:09.861Z,14.00
2019-05-02T06:46:16.456Z,14.20
2019-05-02T06:49:24.148Z,14.50
2019-05-02T06:52:27.207Z,14.90
2019-05-02T06:55:36.234Z,15.30
2019-05-02T06:58:42.296Z,15.80
2019-05-02T07:01:46.888Z,16.30
2019-05-02T07:04:54.729Z,16.70
2019-05-02T07:07:58.662Z,17.30
2019-05-02T07:11:03.721Z,17.70
2019-05-02T07:14:13.516Z,18.00
2019-05-02T07:17:31.962Z,18.20
2019-05-02T07:20:40.710Z,18.50
2019-05-02T07:23:43.525Z,18.80
2019-05-02T07:26:52.027Z,18.90
2019-05-02T07:29:57.830Z,19.10
2019-05-02T07:33:01.204Z,19.30
2019-05-02T07:36:06.876Z,19.50
2019-05-02T07:39:11.608Z,19.80
2019-05-02T07:42:15.955Z,20.20
2019-05-02T07:45:20.566Z,20.40
2019-05-02T07:48:25.499Z,20.60
2019-05-02T07:51:30.746Z,20.90
2019-05-02T07:54:35.747Z,21.30
2019-05-02T07:57:40.705Z,21.40
2019-05-02T08:00:45.469Z,21.80
2019-05-02T08:03:50.185Z,22.00
2019-05-02T08:06:54.510Z,22.30
2019-05-02T08:09:59.392Z,22.60
2019-05-02T08:13:03.726Z,22.80
2019-05-02T08:16:08.134Z,23.10
2019-05-02T08:19:12.889Z,23.10
2019-05-02T08:22:17.452Z,23.30
2019-05-02T08:25:21.901Z,23.30
2019-05-02T08:28:34.886Z,23.40
2019-05-02T08:31:39.224Z,23.30
2019-05-02T08:34:46.209Z,23.30
2019-05-02T08:37:50.034Z,23.50
2019-05-02T08:40:54.716Z,23.80
2019-05-02T08:43:59.039Z,24.00
2019-05-02T08:47:03.354Z,24.20
2019-05-02T08:50:11.364Z,24.50
2019-05-02T08:53:19.834Z,24.70
2019-05-02T08:56:22.932Z,24.70
2019-05-02T08:59:27.244Z,24.70
2019-05-02T09:02:41.273Z,24.70
2019-05-02T09:05:45.281Z,24.80
2019-05-02T09:08:46.109Z,25.00
2019-05-02T09:12:04.944Z,25.10
2019-05-02T09:14:57.214Z,25.20
2019-05-02T09:18:02.820Z,25.20
2019-05-02T09:21:12.485Z,25.30
2019-05-02T09:24:21.400Z,25.40
2019-05-02T09:27:23.854Z,25.40
2019-05-02T09:30:29.941Z,25.50
2019-05-02T09:33:36.722Z,25.50
2019-05-02T09:36:41.849Z,25.50
2019-05-02T09:39:46.544Z,25.60
2019-05-02T09:42:56.050Z,25.60
2019-05-02T09:45:58.137Z,25.50
2019-05-02T09:49:09.000Z,25.40
2019-05-02T09:52:08.872Z,25.40
2019-05-02T09:55:15.467Z,25.40
2019-05-02T09:58:22.819Z,25.40
2019-05-02T10:01:42.113Z,25.30
2019-05-02T10:04:46.589Z,25.30
2019-05-02T10:07:52.587Z,25.50
2019-05-02T10:10:57.166Z,25.60
2019-05-02T10:14:02.452Z,25.90
2019-05-02T10:17:07.511Z,26.00
2019-05-02T10:20:12.540Z,26.10
2019-05-02T10:23:19.547Z,26.40
2019-05-02T10:26:24.570Z,26.40
2019-05-02T10:29:29.918Z,26.50
2019-05-02T10:32:34.376Z,26.50
2019-05-02T10:35:43.371Z,26.60
2019-05-02T10:38:48.930Z,26.60
2019-05-02T10:41:57.456Z,26.60
2019-05-02T10:45:02.553Z,26.70
2019-05-02T10:48:06.384Z,26.80
2019-05-02T10:51:28.550Z,26.80
2019-05-02T10:54:37.310Z,27.00
2019-05-02T10:57:39.269Z,27.20
2019-05-02T11:00:45.482Z,27.30
2019-05-02T11:03:51.647Z,27.20
2019-05-02T11:06:56.804Z,27.30
2019-05-02T11:10:06.695Z,27.50
2019-05-02T11:13:14.013Z,27.70
2019-05-02T11:16:42.212Z,27.70
2019-05-02T11:19:52.670Z,27.50
2019-05-02T11:22:57.353Z,27.40
2019-05-02T11:26:01.782Z,27.40
2019-05-02T11:29:08.880Z,27.30
2019-05-02T11:32:13.632Z,27.20
2019-05-02T11:35:18.021Z,27.20
2019-05-02T11:38:41.408Z,27.00
2019-05-02T11:41:31.733Z,26.90
2019-05-02T11:44:36.682Z,26.60
2019-05-02T11:47:42.290Z,26.40
2019-05-02T11:50:47.149Z,26.20
2019-05-02T11:53:59.337Z,26.00
2019-05-02T11:57:03.423Z,25.60
2019-05-02T12:00:09.624Z,25.50
2019-05-02T12:03:28.033Z,25.30
2019-05-02T12:06:29.862Z,25.00
2019-05-02T12:09:34.592Z,24.60
2019-05-02T12:12:39.690Z,24.50
2019-05-02T12:15:44.995Z,24.30
2019-05-02T12:18:49.327Z,23.90
2019-05-02T12:22:16.910Z,23.70
2019-05-02T12:25:22.346Z,23.40
2019-05-02T12:28:26.749Z,23.10
2019-05-02T12:31:32.630Z,23.00
2019-05-02T12:34:37.461Z,22.80
2019-05-02T12:37:42.504Z,22.70
2019-05-02T12:40:46.949Z,22.60
2019-05-02T12:43:52.428Z,22.50
2019-05-02T12:46:56.924Z,22.40
2019-05-02T12:50:03.171Z,22.50
2019-05-02T12:53:09.081Z,22.50
2019-05-02T12:56:13.409Z,22.40
2019-05-02T12:59:17.684Z,22.40
2019-05-02T13:02:41.690Z,22.20
2019-05-02T13:05:46.107Z,22.20
2019-05-02T13:08:52.437Z,22.10
2019-05-02T13:12:04.637Z,21.90
2019-05-02T13:15:09.600Z,22.00
2019-05-02T13:18:18.737Z,21.90
2019-05-02T13:21:24.122Z,21.90
2019-05-02T13:28:01.977Z,21.80
2019-05-02T13:31:13.481Z,21.80
2019-05-02T13:34:32.971Z,21.60
2019-05-02T13:37:37.351Z,21.50
2019-05-02T13:40:46.081Z,21.50
2019-05-02T13:43:52.447Z,21.40
2019-05-02T13:46:57.019Z,21.40
2019-05-02T13:50:03.790Z,21.20
2019-05-02T13:53:07.587Z,21.20
2019-05-02T13:56:46.540Z,21.20
2019-05-02T13:59:52.569Z,20.90
2019-05-02T14:02:57.462Z,20.90
2019-05-02T14:06:02.964Z,20.70
2019-05-02T14:09:28.411Z,20.70
2019-05-02T14:12:57.822Z,20.60
2019-05-02T14:16:02.373Z,20.50
2019-05-02T14:19:12.739Z,20.40
2019-05-02T14:22:17.096Z,20.20
2019-05-02T14:25:22.410Z,20.20
2019-05-02T14:28:31.204Z,20.00
2019-05-02T14:31:33.953Z,20.00
2019-05-02T14:35:00.025Z,20.00
2019-05-02T14:38:14.793Z,20.00
2019-05-02T14:41:30.119Z,20.00
2019-05-02T14:45:01.463Z,19.90
2019-05-02T14:47:42.322Z,19.80
2019-05-02T14:50:49.650Z,19.60
2019-05-02T14:53:57.559Z,19.70
2019-05-02T14:57:08.219Z,19.40
2019-05-02T15:00:14.217Z,19.30
2019-05-02T15:03:24.528Z,19.30
2019-05-02T15:06:25.986Z,19.30
2019-05-02T15:09:32.219Z,19.30
2019-05-02T15:12:36.366Z,19.30
2019-05-02T15:15:41.585Z,19.20
2019-05-02T15:18:47.565Z,19.10
2019-05-02T15:21:55.932Z,19.10
2019-05-02T15:24:58.779Z,19.20
2019-05-02T15:28:03.164Z,19.30
2019-05-02T15:31:11.884Z,19.30
2019-05-02T15:34:22.801Z,19.50
2019-05-02T15:37:27.701Z,19.70
2019-05-02T15:43:39.283Z,19.60
2019-05-02T15:46:42.567Z,19.50
2019-05-02T15:49:46.909Z,19.40
2019-05-02T15:53:03.206Z,19.40
2019-05-02T15:56:18.615Z,19.30
2019-05-02T15:59:15.435Z,19.20
2019-05-02T16:02:22.886Z,19.00
2019-05-02T16:05:26.924Z,18.90
2019-05-02T16:08:33.029Z,18.80
2019-05-02T16:11:37.446Z,18.80
2019-05-02T16:14:42.438Z,18.60
2019-05-02T16:17:47.061Z,18.50
2019-05-02T16:21:07.028Z,18.40
2019-05-02T16:24:23.196Z,18.30
2019-05-02T16:27:46.612Z,18.20
2019-05-02T16:30:52.700Z,17.90
2019-05-02T16:33:57.522Z,17.80
2019-05-02T16:37:13.558Z,17.70
2019-05-02T16:40:23.933Z,17.60
2019-05-02T16:46:40.795Z,17.40
2019-05-02T16:49:47.952Z,17.40
2019-05-02T16:52:55.629Z,17.30
2019-05-02T16:56:05.575Z,17.20
2019-05-02T16:59:07.739Z,17.10
2019-05-02T17:02:12.312Z,17.10
2019-05-02T17:05:17.214Z,17.00
2019-05-02T17:08:49.404Z,17.00
2019-05-02T17:11:52.589Z,16.80
2019-05-02T17:15:14.775Z,16.70
2019-05-02T17:18:19.076Z,16.60
2019-05-02T17:21:26.905Z,16.50
2019-05-02T17:24:29.455Z,16.40
2019-05-02T17:27:33.799Z,16.30
2019-05-02T17:30:39.423Z,16.10
2019-05-02T17:33:46.168Z,16.00
2019-05-02T17:36:51.836Z,15.80
2019-05-02T17:39:56.328Z,15.70
2019-05-02T17:43:02.839Z,15.70
2019-05-02T17:46:12.688Z,15.60
2019-05-02T17:49:14.011Z,15.40
2019-05-02T17:52:33.326Z,15.40
2019-05-02T17:55:56.758Z,15.30
2019-05-02T17:59:02.045Z,15.20
2019-05-02T18:02:11.543Z,15.10
2019-05-02T18:05:35.583Z,14.90
2019-05-02T18:08:37.898Z,14.90
2019-05-02T18:11:42.441Z,14.90
2019-05-02T18:14:53.155Z,14.80
2019-05-02T18:17:53.037Z,14.60
2019-05-02T18:20:57.388Z,14.70
2019-05-02T18:24:04.955Z,14.70
2019-05-02T18:27:08.123Z,14.70
2019-05-02T18:30:25.018Z,14.70
2019-05-02T18:33:24.692Z,14.80
2019-05-02T18:36:31.978Z,14.80
2019-05-02T18:39:45.468Z,14.80
2019-05-02T18:42:44.015Z,14.80
2019-05-02T18:45:51.216Z,14.80
2019-05-02T18:48:55.564Z,14.70
2019-05-02T18:52:01.850Z,14.60
2019-05-02T18:55:06.629Z,14.50
2019-05-02T18:58:31.821Z,14.50
2019-05-02T19:01:39.478Z,14.30
2019-05-02T19:04:46.098Z,14.30
2019-05-02T19:07:52.746Z,14.20
2019-05-02T19:11:08.516Z,14.20
2019-05-02T19:14:02.818Z,14.10
2019-05-02T19:17:09.146Z,14.00
2019-05-02T19:21:06.840Z,14.00
2019-05-02T19:24:12.958Z,13.90
2019-05-02T19:27:29.560Z,13.90
2019-05-02T19:30:34.765Z,13.80
2019-05-02T19:33:42.658Z,13.80
2019-05-02T19:37:04.670Z,13.80
2019-05-02T19:40:31.666Z,13.70
2019-05-02T19:43:40.470Z,13.70
2019-05-02T19:46:42.215Z,13.80
2019-05-02T19:49:47.273Z,13.80
2019-05-02T19:53:01.231Z,13.70
2019-05-02T19:56:01.354Z,13.80
2019-05-02T19:59:04.884Z,13.70
2019-05-02T20:02:09.203Z,13.50
2019-05-02T20:05:16.573Z,13.50
2019-05-02T20:08:24.084Z,13.40
2019-05-02T20:11:28.042Z,13.30
2019-05-02T20:14:32.152Z,13.30
2019-05-02T20:17:36.505Z,13.10
2019-05-02T20:21:12.074Z,13.10
2019-05-02T20:24:19.394Z,13.00
2019-05-02T20:27:23.104Z,13.00
2019-05-02T20:30:27.799Z,12.90
2019-05-02T20:33:32.553Z,13.00
2019-05-02T20:36:37.086Z,12.90
2019-05-02T20:39:41.727Z,12.90
2019-05-02T20:42:46.206Z,12.90
2019-05-02T20:45:52.572Z,13.00
2019-05-02T20:48:56.584Z,12.90
2019-05-02T20:52:02.433Z,12.80
2019-05-02T20:55:07.380Z,12.80
2019-05-02T20:58:12.629Z,12.70
2019-05-02T21:01:17.118Z,12.70
2019-05-02T21:04:22.841Z,12.50
2019-05-02T21:07:37.504Z,12.40
2019-05-02T21:10:54.263Z,12.40
2019-05-02T21:13:58.700Z,12.20
2019-05-02T21:17:03.000Z,12.10
2019-05-02T21:20:27.991Z,11.90
2019-05-02T21:23:43.921Z,11.80
2019-05-02T21:26:38.292Z,11.60
2019-05-02T21:29:42.651Z,11.60
2019-05-02T21:32:47.007Z,11.40
2019-05-02T21:35:52.453Z,11.40
2019-05-02T21:38:56.772Z,11.20
2019-05-02T21:42:02.359Z,11.30
2019-05-02T21:45:06.975Z,11.20
2019-05-02T21:48:11.222Z,11.10
2019-05-02T21:51:34.524Z,11.10
2019-05-02T21:54:45.795Z,10.90
2019-05-02T21:57:52.063Z,10.90
2019-05-02T22:01:15.290Z,10.90
2019-05-02T22:04:19.660Z,10.90
2019-05-02T22:07:24.050Z,10.80
2019-05-02T22:10:28.488Z,10.80
2019-05-02T22:13:32.827Z,10.80
2019-05-02T22:16:37.237Z,10.70
2019-05-02T22:19:41.732Z,10.70
2019-05-02T22:22:46.146Z,10.60
2019-05-02T22:25:52.529Z,10.60
2019-05-02T22:28:57.236Z,10.60
2019-05-02T22:32:02.988Z,10.50
2019-05-02T22:35:26.609Z,10.60
2019-05-02T22:38:49.945Z,10.50
2019-05-02T22:41:54.273Z,10.60
2019-05-02T22:45:01.593Z,10.50
2019-05-02T22:48:14.308Z,10.50
2019-05-02T22:51:18.776Z,10.50
2019-05-02T22:54:27.725Z,10.50
2019-05-02T22:57:29.143Z,10.50
2019-05-02T23:00:33.440Z,10.40
2019-05-02T23:03:37.807Z,10.50
2019-05-02T23:06:44.171Z,10.40
2019-05-02T23:09:48.159Z,10.50
2019-05-02T23:12:52.703Z,10.50
2019-05-02T23:15:57.024Z,10.60
2019-05-02T23:19:02.765Z,10.60
2019-05-02T23:22:07.230Z,10.70
2019-05-02T23:25:42.136Z,10.80
2019-05-02T23:28:51.713Z,10.60
2019-05-02T23:31:56.340Z,10.80
2019-05-02T23:35:01.949Z,10.80
2019-05-02T23:38:06.418Z,10.80
2019-05-02T23:41:12.560Z,10.90
2019-05-02T23:44:17.026Z,10.90
2019-05-02T23:47:22.431Z,10.80
2019-05-02T23:50:26.941Z,10.80
2019-05-02T23:53:31.649Z,10.90
2019-05-02T23:56:36.054Z,10.90
2019-05-02T23:59:42.432Z,11.00
